sensor_id;sensor_type;location;lat;lon;timestamp;pressure;altitude;pressure_sealevel;temperature;humidity
13312;BME280;34033;48.672;9.376;2023-02-18T00:00:20;99494.34;;;12.43;79.33
13312;BME280;34033;48.672;9.376;2023-02-18T00:02:48;99499.09;;;12.39;78.77
13312;BME280;34033;48.672;9.376;2023-02-18T00:05:13;99491.97;;;12.45;78.64
13312;BME280;34033;48.672;9.376;2023-02-18T00:07:40;99499.66;;;12.52;78.29
13312;BME280;34033;48.672;9.376;2023-02-18T00:10:08;99489.25;;;12.52;78.46
13312;BME280;34033;48.672;9.376;2023-02-18T00:12:35;99490.78;;;12.46;78.36
13312;BME280;34033;48.672;9.376;2023-02-18T00:15:00;99489.91;;;12.42;78.97
13312;BME280;34033;48.672;9.376;2023-02-18T00:17:27;99474.72;;;12.43;78.40
13312;BME280;34033;48.672;9.376;2023-02-18T00:19:52;99472.25;;;12.38;79.01
13312;BME280;34033;48.672;9.376;2023-02-18T00:22:18;99478.69;;;12.42;78.97
13312;BME280;34033;48.672;9.376;2023-02-18T00:24:43;99480.38;;;12.47;78.79
13312;BME280;34033;48.672;9.376;2023-02-18T00:27:08;99474.81;;;12.50;78.29
13312;BME280;34033;48.672;9.376;2023-02-18T00:29:34;99466.81;;;12.52;78.01
13312;BME280;34033;48.672;9.376;2023-02-18T00:31:59;99465.19;;;12.51;78.01
13312;BME280;34033;48.672;9.376;2023-02-18T00:34:24;99459.91;;;12.46;78.11
13312;BME280;34033;48.672;9.376;2023-02-18T00:36:50;99457.41;;;12.38;78.01
13312;BME280;34033;48.672;9.376;2023-02-18T00:39:15;99461.88;;;12.42;77.92
13312;BME280;34033;48.672;9.376;2023-02-18T00:41:41;99471.47;;;12.41;78.30
13312;BME280;34033;48.672;9.376;2023-02-18T00:44:07;99463.50;;;12.43;77.96
13312;BME280;34033;48.672;9.376;2023-02-18T00:46:33;99465.94;;;12.45;78.11
13312;BME280;34033;48.672;9.376;2023-02-18T00:48:58;99467.13;;;12.44;77.99
13312;BME280;34033;48.672;9.376;2023-02-18T00:51:24;99459.56;;;12.48;77.60
13312;BME280;34033;48.672;9.376;2023-02-18T00:53:49;99453.09;;;12.44;77.54
13312;BME280;34033;48.672;9.376;2023-02-18T00:56:15;99450.66;;;12.42;77.62
13312;BME280;34033;48.672;9.376;2023-02-18T00:58:41;99454.63;;;12.41;78.01
13312;BME280;34033;48.672;9.376;2023-02-18T01:01:08;99455.03;;;12.40;78.54
13312;BME280;34033;48.672;9.376;2023-02-18T01:03:38;99450.97;;;12.37;77.87
13312;BME280;34033;48.672;9.376;2023-02-18T01:06:05;99462.16;;;12.34;77.86
13312;BME280;34033;48.672;9.376;2023-02-18T01:08:31;99464.88;;;12.30;77.88
13312;BME280;34033;48.672;9.376;2023-02-18T01:10:57;99463.28;;;12.29;78.62
13312;BME280;34033;48.672;9.376;2023-02-18T01:13:23;99468.13;;;12.32;78.44
13312;BME280;34033;48.672;9.376;2023-02-18T01:15:49;99463.38;;;12.36;77.52
13312;BME280;34033;48.672;9.376;2023-02-18T01:18:15;99469.38;;;12.35;77.48
13312;BME280;34033;48.672;9.376;2023-02-18T01:20:42;99472.19;;;12.35;77.86
13312;BME280;34033;48.672;9.376;2023-02-18T01:23:08;99461.75;;;12.35;77.85
13312;BME280;34033;48.672;9.376;2023-02-18T01:25:34;99451.34;;;12.36;77.49
13312;BME280;34033;48.672;9.376;2023-02-18T01:28:01;99447.38;;;12.37;76.66
13312;BME280;34033;48.672;9.376;2023-02-18T01:30:26;99451.44;;;12.39;77.32
13312;BME280;34033;48.672;9.376;2023-02-18T01:32:51;99449.84;;;12.42;77.03
13312;BME280;34033;48.672;9.376;2023-02-18T01:35:18;99448.28;;;12.44;77.21
13312;BME280;34033;48.672;9.376;2023-02-18T01:37:44;99452.16;;;12.36;77.04
13312;BME280;34033;48.672;9.376;2023-02-18T01:40:12;99451.84;;;12.41;76.86
13312;BME280;34033;48.672;9.376;2023-02-18T01:42:39;99446.66;;;12.43;76.40
13312;BME280;34033;48.672;9.376;2023-02-18T01:48:07;99436.63;;;12.42;77.10
13312;BME280;34033;48.672;9.376;2023-02-18T01:50:37;99441.84;;;12.40;76.73
13312;BME280;34033;48.672;9.376;2023-02-18T01:53:03;99446.53;;;12.33;77.20
13312;BME280;34033;48.672;9.376;2023-02-18T01:55:30;99437.78;;;12.38;76.84
13312;BME280;34033;48.672;9.376;2023-02-18T01:57:55;99437.06;;;12.44;76.73
13312;BME280;34033;48.672;9.376;2023-02-18T02:00:21;99432.66;;;12.43;76.05
13312;BME280;34033;48.672;9.376;2023-02-18T02:02:48;99421.88;;;12.45;76.23
13312;BME280;34033;48.672;9.376;2023-02-18T02:05:14;99429.41;;;12.41;75.96
13312;BME280;34033;48.672;9.376;2023-02-18T02:07:40;99424.22;;;12.43;76.08
13312;BME280;34033;48.672;9.376;2023-02-18T02:10:08;99422.56;;;12.39;76.00
13312;BME280;34033;48.672;9.376;2023-02-18T02:13:06;99416.13;;;12.35;76.26
13312;BME280;34033;48.672;9.376;2023-02-18T02:18:20;99410.44;;;12.31;75.80
13312;BME280;34033;48.672;9.376;2023-02-18T02:32:02;99412.75;;;12.26;76.28
13312;BME280;34033;48.672;9.376;2023-02-18T02:40:06;99418.19;;;12.41;75.16
13312;BME280;34033;48.672;9.376;2023-02-18T02:42:52;99416.63;;;12.44;75.28
13312;BME280;34033;48.672;9.376;2023-02-18T02:48:14;99409.69;;;12.34;74.93
13312;BME280;34033;48.672;9.376;2023-02-18T02:50:46;99410.91;;;12.37;75.61
13312;BME280;34033;48.672;9.376;2023-02-18T02:53:21;99407.31;;;12.36;75.00
13312;BME280;34033;48.672;9.376;2023-02-18T02:55:48;99405.69;;;12.35;75.40
13312;BME280;34033;48.672;9.376;2023-02-18T02:58:16;99403.75;;;12.39;74.94
13312;BME280;34033;48.672;9.376;2023-02-18T03:03:34;99400.06;;;12.35;74.97
13312;BME280;34033;48.672;9.376;2023-02-18T03:06:10;99394.53;;;12.39;74.73
13312;BME280;34033;48.672;9.376;2023-02-18T03:09:20;99400.94;;;12.39;74.55
13312;BME280;34033;48.672;9.376;2023-02-18T03:11:50;99402.09;;;12.35;74.68
13312;BME280;34033;48.672;9.376;2023-02-18T03:14:26;99395.56;;;12.27;75.56
13312;BME280;34033;48.672;9.376;2023-02-18T03:22:33;99386.63;;;12.18;75.75
13312;BME280;34033;48.672;9.376;2023-02-18T03:25:02;99380.59;;;12.16;75.71
13312;BME280;34033;48.672;9.376;2023-02-18T03:27:58;99381.44;;;12.20;75.75
13312;BME280;34033;48.672;9.376;2023-02-18T03:30:30;99383.16;;;12.28;75.60
13312;BME280;34033;48.672;9.376;2023-02-18T03:32:59;99377.56;;;12.28;75.67
13312;BME280;34033;48.672;9.376;2023-02-18T03:35:27;99374.28;;;12.23;75.36
13312;BME280;34033;48.672;9.376;2023-02-18T03:40:44;99374.69;;;12.25;75.39
13312;BME280;34033;48.672;9.376;2023-02-18T03:43:09;99365.81;;;12.19;75.37
13312;BME280;34033;48.672;9.376;2023-02-18T03:45:35;99367.00;;;12.18;75.44
13312;BME280;34033;48.672;9.376;2023-02-18T03:48:00;99355.84;;;12.22;75.58
13312;BME280;34033;48.672;9.376;2023-02-18T03:50:25;99361.06;;;12.23;75.53
13312;BME280;34033;48.672;9.376;2023-02-18T03:52:51;99355.78;;;12.18;75.00
13312;BME280;34033;48.672;9.376;2023-02-18T03:55:16;99353.06;;;12.25;74.81
13312;BME280;34033;48.672;9.376;2023-02-18T03:57:41;99355.16;;;12.32;74.33
13312;BME280;34033;48.672;9.376;2023-02-18T04:00:07;99356.00;;;12.36;73.84
13312;BME280;34033;48.672;9.376;2023-02-18T04:02:34;99360.41;;;12.33;74.35
13312;BME280;34033;48.672;9.376;2023-02-18T04:05:00;99362.72;;;12.28;74.47
13312;BME280;34033;48.672;9.376;2023-02-18T04:07:25;99362.25;;;12.22;74.80
13312;BME280;34033;48.672;9.376;2023-02-18T04:09:51;99380.69;;;12.23;74.67
13312;BME280;34033;48.672;9.376;2023-02-18T04:12:16;99377.44;;;12.21;74.69
13312;BME280;34033;48.672;9.376;2023-02-18T04:14:42;99379.81;;;12.19;74.40
13312;BME280;34033;48.672;9.376;2023-02-18T04:17:07;99372.22;;;12.20;74.31
13312;BME280;34033;48.672;9.376;2023-02-18T04:19:32;99371.00;;;12.17;74.05
13312;BME280;34033;48.672;9.376;2023-02-18T04:21:58;99373.34;;;12.15;74.23
13312;BME280;34033;48.672;9.376;2023-02-18T04:24:23;99374.94;;;12.13;74.57
13312;BME280;34033;48.672;9.376;2023-02-18T04:26:49;99366.78;;;12.04;74.79
13312;BME280;34033;48.672;9.376;2023-02-18T04:29:14;99374.75;;;12.02;75.10
13312;BME280;34033;48.672;9.376;2023-02-18T04:31:39;99365.84;;;11.96;75.46
13312;BME280;34033;48.672;9.376;2023-02-18T04:34:04;99366.63;;;11.93;75.49
13312;BME280;34033;48.672;9.376;2023-02-18T04:36:30;99360.66;;;11.95;75.80
13312;BME280;34033;48.672;9.376;2023-02-18T04:38:55;99360.16;;;11.89;75.60
13312;BME280;34033;48.672;9.376;2023-02-18T04:41:21;99362.91;;;11.86;75.22
13312;BME280;34033;48.672;9.376;2023-02-18T04:43:46;99357.75;;;11.88;75.76
13312;BME280;34033;48.672;9.376;2023-02-18T04:46:11;99360.09;;;11.86;75.68
13312;BME280;34033;48.672;9.376;2023-02-18T04:48:37;99374.53;;;11.88;75.50
13312;BME280;34033;48.672;9.376;2023-02-18T04:51:02;99371.31;;;11.86;75.56
13312;BME280;34033;48.672;9.376;2023-02-18T04:53:28;99376.91;;;11.86;75.17
13312;BME280;34033;48.672;9.376;2023-02-18T04:55:53;99372.41;;;11.78;75.73
13312;BME280;34033;48.672;9.376;2023-02-18T04:58:19;99374.88;;;11.83;75.54
13312;BME280;34033;48.672;9.376;2023-02-18T05:00:45;99379.72;;;11.86;75.55
13312;BME280;34033;48.672;9.376;2023-02-18T05:03:10;99370.94;;;11.87;74.70
13312;BME280;34033;48.672;9.376;2023-02-18T05:05:36;99376.16;;;11.89;75.25
13312;BME280;34033;48.672;9.376;2023-02-18T05:08:02;99379.66;;;11.82;75.64
13312;BME280;34033;48.672;9.376;2023-02-18T05:10:27;99370.44;;;11.82;75.15
13312;BME280;34033;48.672;9.376;2023-02-18T05:12:52;99377.31;;;11.84;75.42
13312;BME280;34033;48.672;9.376;2023-02-18T05:15:18;99371.25;;;11.82;75.49
13312;BME280;34033;48.672;9.376;2023-02-18T05:17:43;99370.44;;;11.82;75.61
13312;BME280;34033;48.672;9.376;2023-02-18T05:20:09;99372.06;;;11.83;75.62
13312;BME280;34033;48.672;9.376;2023-02-18T05:22:35;99369.63;;;11.81;75.69
13312;BME280;34033;48.672;9.376;2023-02-18T05:25:00;99369.97;;;11.76;75.59
13312;BME280;34033;48.672;9.376;2023-02-18T05:27:26;99376.88;;;11.82;75.48
13312;BME280;34033;48.672;9.376;2023-02-18T05:29:51;99366.03;;;11.81;76.04
13312;BME280;34033;48.672;9.376;2023-02-18T05:32:16;99366.47;;;11.83;75.38
13312;BME280;34033;48.672;9.376;2023-02-18T05:34:41;99364.47;;;11.83;75.64
13312;BME280;34033;48.672;9.376;2023-02-18T05:37:07;99356.81;;;11.80;75.56
13312;BME280;34033;48.672;9.376;2023-02-18T05:39:33;99360.34;;;11.74;75.98
13312;BME280;34033;48.672;9.376;2023-02-18T05:41:58;99359.84;;;11.71;75.98
13312;BME280;34033;48.672;9.376;2023-02-18T05:44:23;99366.34;;;11.76;75.51
13312;BME280;34033;48.672;9.376;2023-02-18T05:46:56;99358.34;;;11.74;76.10
13312;BME280;34033;48.672;9.376;2023-02-18T05:49:21;99357.56;;;11.77;76.23
13312;BME280;34033;48.672;9.376;2023-02-18T05:51:47;99355.88;;;11.73;76.37
13312;BME280;34033;48.672;9.376;2023-02-18T05:54:12;99360.75;;;11.76;76.39
13312;BME280;34033;48.672;9.376;2023-02-18T05:56:38;99363.66;;;11.83;76.19
13312;BME280;34033;48.672;9.376;2023-02-18T05:59:03;99352.81;;;11.81;75.64
13312;BME280;34033;48.672;9.376;2023-02-18T06:01:28;99352.09;;;11.84;75.85
13312;BME280;34033;48.672;9.376;2023-02-18T06:03:54;99360.00;;;11.79;76.33
13312;BME280;34033;48.672;9.376;2023-02-18T06:06:19;99360.50;;;11.84;76.14
13312;BME280;34033;48.672;9.376;2023-02-18T06:08:44;99358.50;;;11.85;76.05
13312;BME280;34033;48.672;9.376;2023-02-18T06:11:10;99353.75;;;11.89;75.61
13312;BME280;34033;48.672;9.376;2023-02-18T06:13:35;99348.84;;;11.82;75.83
13312;BME280;34033;48.672;9.376;2023-02-18T06:16:01;99348.88;;;11.86;75.52
13312;BME280;34033;48.672;9.376;2023-02-18T06:18:26;99352.00;;;11.81;75.59
13312;BME280;34033;48.672;9.376;2023-02-18T06:20:51;99345.94;;;11.75;75.63
13312;BME280;34033;48.672;9.376;2023-02-18T06:23:17;99331.09;;;11.75;75.32
13312;BME280;34033;48.672;9.376;2023-02-18T06:25:42;99340.13;;;11.64;75.79
13312;BME280;34033;48.672;9.376;2023-02-18T06:28:08;99343.69;;;11.61;75.96
13312;BME280;34033;48.672;9.376;2023-02-18T06:30:33;99343.63;;;11.58;75.79
13312;BME280;34033;48.672;9.376;2023-02-18T06:32:59;99348.59;;;11.68;76.07
13312;BME280;34033;48.672;9.376;2023-02-18T06:35:28;99350.97;;;11.66;75.92
13312;BME280;34033;48.672;9.376;2023-02-18T06:37:53;99346.19;;;11.66;75.63
13312;BME280;34033;48.672;9.376;2023-02-18T06:40:19;99354.56;;;11.66;76.01
13312;BME280;34033;48.672;9.376;2023-02-18T06:42:44;99353.63;;;11.59;76.14
13312;BME280;34033;48.672;9.376;2023-02-18T06:45:10;99352.41;;;11.56;76.74
13312;BME280;34033;48.672;9.376;2023-02-18T06:47:35;99357.63;;;11.58;76.19
13312;BME280;34033;48.672;9.376;2023-02-18T06:50:00;99356.44;;;11.59;76.16
13312;BME280;34033;48.672;9.376;2023-02-18T06:52:26;99355.31;;;11.63;76.30
13312;BME280;34033;48.672;9.376;2023-02-18T06:54:51;99350.78;;;11.55;76.59
13312;BME280;34033;48.672;9.376;2023-02-18T06:57:17;99350.34;;;11.53;76.49
13312;BME280;34033;48.672;9.376;2023-02-18T06:59:42;99354.03;;;11.57;76.85
13312;BME280;34033;48.672;9.376;2023-02-18T07:02:10;99360.13;;;11.63;76.41
13312;BME280;34033;48.672;9.376;2023-02-18T07:04:36;99359.72;;;11.64;76.16
13312;BME280;34033;48.672;9.376;2023-02-18T07:07:02;99361.41;;;11.69;76.17
13312;BME280;34033;48.672;9.376;2023-02-18T07:09:27;99351.94;;;11.74;76.04
13312;BME280;34033;48.672;9.376;2023-02-18T07:11:52;99355.97;;;11.76;75.78
13312;BME280;34033;48.672;9.376;2023-02-18T07:14:18;99358.03;;;11.79;75.76
13312;BME280;34033;48.672;9.376;2023-02-18T07:16:43;99352.91;;;11.85;75.01
13312;BME280;34033;48.672;9.376;2023-02-18T07:19:08;99349.63;;;11.79;75.87
13312;BME280;34033;48.672;9.376;2023-02-18T07:21:34;99356.81;;;11.80;75.50
13312;BME280;34033;48.672;9.376;2023-02-18T07:23:59;99357.22;;;11.79;75.54
13312;BME280;34033;48.672;9.376;2023-02-18T07:26:24;99352.34;;;11.76;75.96
13312;BME280;34033;48.672;9.376;2023-02-18T07:28:50;99349.22;;;11.81;75.46
13312;BME280;34033;48.672;9.376;2023-02-18T07:31:15;99359.53;;;11.73;75.56
13312;BME280;34033;48.672;9.376;2023-02-18T07:33:41;99356.28;;;11.97;79.43
13312;BME280;34033;48.672;9.376;2023-02-18T07:36:07;99355.13;;;12.02;76.21
13312;BME280;34033;48.672;9.376;2023-02-18T07:38:32;99351.63;;;12.08;76.37
13312;BME280;34033;48.672;9.376;2023-02-18T07:40:59;99342.03;;;12.09;75.04
13312;BME280;34033;48.672;9.376;2023-02-18T07:43:25;99353.69;;;12.11;75.12
13312;BME280;34033;48.672;9.376;2023-02-18T07:45:50;99345.63;;;12.70;89.00
13312;BME280;34033;48.672;9.376;2023-02-18T07:48:16;99349.19;;;13.37;92.86
13312;BME280;34033;48.672;9.376;2023-02-18T07:50:43;99343.41;;;13.19;74.35
13312;BME280;34033;48.672;9.376;2023-02-18T07:53:10;99335.91;;;12.97;72.55
13312;BME280;34033;48.672;9.376;2023-02-18T07:55:36;99333.81;;;12.87;74.12
13312;BME280;34033;48.672;9.376;2023-02-18T07:58:24;99326.78;;;12.67;74.18
13312;BME280;34033;48.672;9.376;2023-02-18T08:00:50;99317.03;;;12.57;74.28
13312;BME280;34033;48.672;9.376;2023-02-18T08:03:18;99321.41;;;12.54;74.78
13312;BME280;34033;48.672;9.376;2023-02-18T08:05:44;99313.75;;;12.51;74.83
13312;BME280;34033;48.672;9.376;2023-02-18T08:08:16;99317.44;;;12.59;75.11
13312;BME280;34033;48.672;9.376;2023-02-18T08:10:42;99316.38;;;12.67;74.27
13312;BME280;34033;48.672;9.376;2023-02-18T08:13:09;99310.19;;;12.91;77.20
13312;BME280;34033;48.672;9.376;2023-02-18T08:15:35;99318.25;;;12.96;73.77
13312;BME280;34033;48.672;9.376;2023-02-18T08:18:00;99317.63;;;13.10;80.67
13312;BME280;34033;48.672;9.376;2023-02-18T08:20:26;99314.91;;;13.65;96.55
13312;BME280;34033;48.672;9.376;2023-02-18T08:22:52;99314.75;;;13.44;74.77
13312;BME280;34033;48.672;9.376;2023-02-18T08:25:17;99306.78;;;13.53;73.90
13312;BME280;34033;48.672;9.376;2023-02-18T08:27:43;99319.56;;;13.43;72.79
13312;BME280;34033;48.672;9.376;2023-02-18T08:30:09;99313.03;;;13.32;72.00
13312;BME280;34033;48.672;9.376;2023-02-18T08:32:35;99316.22;;;13.30;72.29
13312;BME280;34033;48.672;9.376;2023-02-18T08:35:00;99318.66;;;13.32;71.38
13312;BME280;34033;48.672;9.376;2023-02-18T08:37:25;99311.41;;;13.27;71.49
13312;BME280;34033;48.672;9.376;2023-02-18T08:39:51;99311.75;;;13.22;71.57
13312;BME280;34033;48.672;9.376;2023-02-18T08:42:16;99306.53;;;13.24;71.98
13312;BME280;34033;48.672;9.376;2023-02-18T08:44:42;99304.91;;;13.23;70.81
13312;BME280;34033;48.672;9.376;2023-02-18T08:47:07;99308.22;;;13.32;71.50
13312;BME280;34033;48.672;9.376;2023-02-18T08:49:32;99307.41;;;13.28;69.83
13312;BME280;34033;48.672;9.376;2023-02-18T08:51:58;99306.63;;;13.35;70.21
13312;BME280;34033;48.672;9.376;2023-02-18T08:54:23;99309.84;;;13.33;70.09
13312;BME280;34033;48.672;9.376;2023-02-18T08:56:49;99305.88;;;13.38;70.31
13312;BME280;34033;48.672;9.376;2023-02-18T08:59:14;99309.41;;;13.31;69.07
13312;BME280;34033;48.672;9.376;2023-02-18T09:01:39;99309.88;;;13.37;69.30
13312;BME280;34033;48.672;9.376;2023-02-18T09:04:05;99308.31;;;13.40;68.93
13312;BME280;34033;48.672;9.376;2023-02-18T09:06:30;99296.56;;;13.30;68.78
13312;BME280;34033;48.672;9.376;2023-02-18T09:08:55;99303.41;;;13.33;69.20
13312;BME280;34033;48.672;9.376;2023-02-18T09:11:21;99290.19;;;13.33;68.87
13312;BME280;34033;48.672;9.376;2023-02-18T09:13:46;99301.19;;;13.56;77.16
13312;BME280;34033;48.672;9.376;2023-02-18T09:16:16;99289.44;;;14.02;88.28
13312;BME280;34033;48.672;9.376;2023-02-18T09:18:43;99291.53;;;14.15;69.26
13312;BME280;34033;48.672;9.376;2023-02-18T09:21:11;99283.00;;;13.98;67.22
13312;BME280;34033;48.672;9.376;2023-02-18T09:23:37;99281.38;;;13.97;68.77
13312;BME280;34033;48.672;9.376;2023-02-18T09:26:08;99279.31;;;13.87;67.28
13312;BME280;34033;48.672;9.376;2023-02-18T09:28:34;99281.63;;;13.67;68.65
13312;BME280;34033;48.672;9.376;2023-02-18T09:31:11;99283.63;;;13.70;68.60
13312;BME280;34033;48.672;9.376;2023-02-18T09:33:39;99280.50;;;13.82;69.73
13312;BME280;34033;48.672;9.376;2023-02-18T09:36:05;99271.72;;;13.91;69.77
13312;BME280;34033;48.672;9.376;2023-02-18T09:38:31;99272.16;;;13.96;67.60
13312;BME280;34033;48.672;9.376;2023-02-18T09:40:57;99265.28;;;13.90;67.23
13312;BME280;34033;48.672;9.376;2023-02-18T09:45:55;99247.66;;;13.93;66.99
13312;BME280;34033;48.672;9.376;2023-02-18T09:48:26;99250.84;;;13.95;66.49
13312;BME280;34033;48.672;9.376;2023-02-18T09:50:53;99248.53;;;14.11;68.05
13312;BME280;34033;48.672;9.376;2023-02-18T09:53:21;99238.94;;;14.16;66.33
13312;BME280;34033;48.672;9.376;2023-02-18T09:55:47;99250.13;;;14.05;66.25
13312;BME280;34033;48.672;9.376;2023-02-18T10:00:41;99239.72;;;14.16;69.18
13312;BME280;34033;48.672;9.376;2023-02-18T10:05:40;99253.75;;;14.09;67.08
13312;BME280;34033;48.672;9.376;2023-02-18T10:08:16;99252.41;;;13.86;67.87
13312;BME280;34033;48.672;9.376;2023-02-18T10:10:45;99249.25;;;13.94;71.11
13312;BME280;34033;48.672;9.376;2023-02-18T10:13:17;99250.88;;;13.99;68.04
13312;BME280;34033;48.672;9.376;2023-02-18T10:15:43;99248.53;;;14.11;67.76
13312;BME280;34033;48.672;9.376;2023-02-18T10:18:42;99251.75;;;14.13;67.06
13312;BME280;34033;48.672;9.376;2023-02-18T10:21:11;99252.50;;;14.03;66.42
13312;BME280;34033;48.672;9.376;2023-02-18T10:23:42;99255.69;;;13.98;66.62
13312;BME280;34033;48.672;9.376;2023-02-18T10:26:16;99254.81;;;13.84;67.20
13312;BME280;34033;48.672;9.376;2023-02-18T10:28:43;99265.22;;;13.79;67.38
13312;BME280;34033;48.672;9.376;2023-02-18T10:31:14;99245.75;;;14.18;83.56
13312;BME280;34033;48.672;9.376;2023-02-18T10:34:04;99258.28;;;14.32;72.29
13312;BME280;34033;48.672;9.376;2023-02-18T10:36:49;99257.94;;;14.44;66.11
13312;BME280;34033;48.672;9.376;2023-02-18T10:39:33;99268.66;;;14.24;65.45
13312;BME280;34033;48.672;9.376;2023-02-18T10:45:20;99271.00;;;14.04;65.59
13312;BME280;34033;48.672;9.376;2023-02-18T10:50:45;99272.97;;;14.00;66.16
13312;BME280;34033;48.672;9.376;2023-02-18T10:55:55;99263.75;;;14.03;65.77
13312;BME280;34033;48.672;9.376;2023-02-18T11:00:54;99294.94;;;13.84;64.98
13312;BME280;34033;48.672;9.376;2023-02-18T11:03:22;99266.84;;;13.84;65.74
13312;BME280;34033;48.672;9.376;2023-02-18T11:05:54;99270.00;;;13.72;65.37
13312;BME280;34033;48.672;9.376;2023-02-18T11:08:26;99269.22;;;13.78;65.22
13312;BME280;34033;48.672;9.376;2023-02-18T11:10:53;99254.84;;;13.87;65.25
13312;BME280;34033;48.672;9.376;2023-02-18T11:13:28;99250.84;;;13.92;65.31
13312;BME280;34033;48.672;9.376;2023-02-18T11:16:04;99244.44;;;13.95;65.23
13312;BME280;34033;48.672;9.376;2023-02-18T11:18:42;99238.41;;;13.96;64.83
13312;BME280;34033;48.672;9.376;2023-02-18T11:23:50;99233.66;;;14.07;65.11
13312;BME280;34033;48.672;9.376;2023-02-18T11:26:30;99230.09;;;14.21;64.95
13312;BME280;34033;48.672;9.376;2023-02-18T11:29:02;99222.81;;;14.13;63.66
13312;BME280;34033;48.672;9.376;2023-02-18T11:31:40;99217.25;;;14.16;64.35
13312;BME280;34033;48.672;9.376;2023-02-18T11:34:14;99216.47;;;14.27;64.01
13312;BME280;34033;48.672;9.376;2023-02-18T11:36:40;99218.09;;;14.28;63.90
13312;BME280;34033;48.672;9.376;2023-02-18T11:39:22;99215.63;;;14.23;63.85
13312;BME280;34033;48.672;9.376;2023-02-18T11:42:01;99208.41;;;14.25;64.13
13312;BME280;34033;48.672;9.376;2023-02-18T11:44:36;99206.00;;;14.24;63.74
13312;BME280;34033;48.672;9.376;2023-02-18T11:49:37;99204.84;;;14.35;63.63
13312;BME280;34033;48.672;9.376;2023-02-18T11:52:13;99203.66;;;14.40;63.87
13312;BME280;34033;48.672;9.376;2023-02-18T11:54:40;99203.63;;;14.36;63.70
13312;BME280;34033;48.672;9.376;2023-02-18T11:57:09;99196.41;;;14.32;63.40
13312;BME280;34033;48.672;9.376;2023-02-18T11:59:37;99192.03;;;14.41;63.23
13312;BME280;34033;48.672;9.376;2023-02-18T12:04:41;99186.75;;;14.36;62.71
13312;BME280;34033;48.672;9.376;2023-02-18T12:07:28;99187.97;;;14.32;62.69
13312;BME280;34033;48.672;9.376;2023-02-18T12:10:03;99179.97;;;14.37;62.77
13312;BME280;34033;48.672;9.376;2023-02-18T12:15:16;99164.31;;;14.47;61.96
13312;BME280;34033;48.672;9.376;2023-02-18T12:20:40;99177.19;;;14.69;70.67
13312;BME280;34033;48.672;9.376;2023-02-18T12:26:28;99172.41;;;14.91;59.61
13312;BME280;34033;48.672;9.376;2023-02-18T12:29:06;99171.97;;;14.64;59.66
13312;BME280;34033;48.672;9.376;2023-02-18T12:50:58;99153.47;;;14.63;58.58
13312;BME280;34033;48.672;9.376;2023-02-18T12:56:06;99153.09;;;14.65;57.96
13312;BME280;34033;48.672;9.376;2023-02-18T13:09:49;99144.63;;;14.61;55.64
13312;BME280;34033;48.672;9.376;2023-02-18T13:12:29;99139.81;;;14.65;55.61
13312;BME280;34033;48.672;9.376;2023-02-18T13:15:15;99118.50;;;14.78;55.74
13312;BME280;34033;48.672;9.376;2023-02-18T13:17:43;99129.38;;;14.87;55.37
13312;BME280;34033;48.672;9.376;2023-02-18T13:20:22;99128.16;;;14.91;53.94
13312;BME280;34033;48.672;9.376;2023-02-18T13:22:50;99119.72;;;14.98;54.06
13312;BME280;34033;48.672;9.376;2023-02-18T13:25:18;99118.88;;;15.01;53.88
13312;BME280;34033;48.672;9.376;2023-02-18T13:28:39;99107.66;;;14.98;53.25
13312;BME280;34033;48.672;9.376;2023-02-18T13:30:46;99130.56;;;15.00;53.58
13312;BME280;34033;48.672;9.376;2023-02-18T13:39:07;99109.66;;;14.97;53.40
13312;BME280;34033;48.672;9.376;2023-02-18T13:41:38;99088.72;;;15.02;53.78
13312;BME280;34033;48.672;9.376;2023-02-18T13:46:50;99095.06;;;15.45;52.60
13312;BME280;34033;48.672;9.376;2023-02-18T13:49:21;99096.66;;;15.57;52.35
13312;BME280;34033;48.672;9.376;2023-02-18T13:51:52;99084.56;;;15.63;52.13
13312;BME280;34033;48.672;9.376;2023-02-18T13:54:21;99088.16;;;15.74;51.94
13312;BME280;34033;48.672;9.376;2023-02-18T13:56:58;99083.59;;;15.95;51.37
13312;BME280;34033;48.672;9.376;2023-02-18T13:59:38;99106.16;;;15.95;50.96
13312;BME280;34033;48.672;9.376;2023-02-18T14:21:04;99069.13;;;15.89;51.64
13312;BME280;34033;48.672;9.376;2023-02-18T14:26:31;99067.53;;;15.88;51.16
13312;BME280;34033;48.672;9.376;2023-02-18T14:29:29;99061.03;;;15.98;50.94
13312;BME280;34033;48.672;9.376;2023-02-18T14:32:02;99058.66;;;15.93;51.03
13312;BME280;34033;48.672;9.376;2023-02-18T14:36:10;99056.28;;;15.84;50.80
13312;BME280;34033;48.672;9.376;2023-02-18T14:38:00;99029.72;;;15.82;51.61
13312;BME280;34033;48.672;9.376;2023-02-18T14:44:00;99028.41;;;15.97;51.27
13312;BME280;34033;48.672;9.376;2023-02-18T14:46:48;99030.50;;;15.86;50.85
13312;BME280;34033;48.672;9.376;2023-02-18T14:52:30;99029.72;;;15.82;50.82
13312;BME280;34033;48.672;9.376;2023-02-18T14:54:59;99041.44;;;15.73;51.04
13312;BME280;34033;48.672;9.376;2023-02-18T14:57:36;99061.22;;;15.63;50.60
13312;BME280;34033;48.672;9.376;2023-02-18T15:00:04;99035.91;;;15.49;50.83
13312;BME280;34033;48.672;9.376;2023-02-18T15:02:35;99031.50;;;15.37;51.15
13312;BME280;34033;48.672;9.376;2023-02-18T15:05:36;99041.97;;;15.36;51.40
13312;BME280;34033;48.672;9.376;2023-02-18T15:08:04;99066.13;;;15.34;51.72
13312;BME280;34033;48.672;9.376;2023-02-18T15:10:40;99050.88;;;15.21;51.89
13312;BME280;34033;48.672;9.376;2023-02-18T15:15:38;99025.97;;;15.05;52.44
13312;BME280;34033;48.672;9.376;2023-02-18T15:18:04;99057.75;;;15.02;52.21
13312;BME280;34033;48.672;9.376;2023-02-18T15:20:37;99039.25;;;15.08;52.54
13312;BME280;34033;48.672;9.376;2023-02-18T15:23:04;99046.06;;;15.11;52.21
13312;BME280;34033;48.672;9.376;2023-02-18T15:25:29;99044.84;;;15.19;51.96
13312;BME280;34033;48.672;9.376;2023-02-18T15:27:55;99033.56;;;15.26;51.95
13312;BME280;34033;48.672;9.376;2023-02-18T15:32:54;99052.47;;;15.18;52.08
13312;BME280;34033;48.672;9.376;2023-02-18T15:35:21;99036.41;;;15.15;52.32